createdAt,value
2023-02-27T00:00:59.985Z,8.80
2023-02-27T00:01:59.984Z,9.20
2023-02-27T00:03:00.005Z,8.40
2023-02-27T00:03:59.988Z,8.80
2023-02-27T00:04:59.942Z,8.60
2023-02-27T00:05:59.916Z,8.90
2023-02-27T00:06:59.928Z,8.50
2023-02-27T00:07:59.891Z,8.90
2023-02-27T00:08:59.903Z,8.70
2023-02-27T00:09:59.869Z,8.80
2023-02-27T00:10:59.861Z,8.40
2023-02-27T00:11:59.877Z,8.60
2023-02-27T00:12:59.835Z,9.00
2023-02-27T00:13:59.821Z,8.10
2023-02-27T00:14:59.811Z,8.30
2023-02-27T00:15:59.837Z,8.60
2023-02-27T00:16:59.796Z,8.30
2023-02-27T00:17:59.768Z,8.50
2023-02-27T00:18:59.765Z,8.60
2023-02-27T00:19:59.750Z,7.90
2023-02-27T00:20:59.729Z,8.30
2023-02-27T00:21:59.729Z,8.20
2023-02-27T00:22:59.706Z,8.20
2023-02-27T00:23:59.697Z,8.40
2023-02-27T00:24:59.684Z,8.50
2023-02-27T00:25:59.668Z,8.60
2023-02-27T00:26:59.666Z,9.10
2023-02-27T00:27:59.682Z,8.90
2023-02-27T00:28:59.632Z,9.20
2023-02-27T00:29:59.616Z,9.80
2023-02-27T00:30:59.735Z,9.70
2023-02-27T00:31:59.704Z,9.80
2023-02-27T00:32:59.599Z,10.10
2023-02-27T00:33:59.569Z,9.80
2023-02-27T00:34:59.552Z,10.10
2023-02-27T00:35:59.553Z,10.30
2023-02-27T00:36:59.532Z,10.40
2023-02-27T00:37:59.531Z,9.70
2023-02-27T00:38:59.507Z,9.30
2023-02-27T00:39:59.495Z,9.20
2023-02-27T00:40:59.507Z,9.60
2023-02-27T00:41:59.468Z,9.70
2023-02-27T00:42:59.476Z,9.50
2023-02-27T00:43:59.463Z,9.80
2023-02-27T00:44:59.432Z,9.70
2023-02-27T00:45:59.413Z,9.70
2023-02-27T00:46:59.410Z,10.20
2023-02-27T00:47:59.403Z,10.30
2023-02-27T00:48:59.379Z,9.90
2023-02-27T00:49:59.366Z,10.60
2023-02-27T00:50:59.349Z,10.60
2023-02-27T00:51:59.337Z,10.80
2023-02-27T00:52:59.338Z,10.50
2023-02-27T00:53:59.313Z,10.60
2023-02-27T00:54:59.299Z,10.10
2023-02-27T00:55:59.284Z,10.70
2023-02-27T00:56:59.273Z,10.40
2023-02-27T00:57:59.272Z,10.20
2023-02-27T00:58:59.255Z,10.20
2023-02-27T00:59:59.259Z,9.80
2023-02-27T01:00:59.294Z,10.00
2023-02-27T01:01:59.216Z,9.80
2023-02-27T01:02:59.224Z,9.30
2023-02-27T01:03:59.202Z,9.70
2023-02-27T01:04:59.178Z,9.90
2023-02-27T01:05:59.166Z,9.10
2023-02-27T01:06:59.152Z,9.50
2023-02-27T01:07:59.152Z,9.10
2023-02-27T01:08:59.134Z,8.70
2023-02-27T01:09:59.134Z,9.10
2023-02-27T01:10:59.105Z,9.20
2023-02-27T01:11:59.098Z,8.80
2023-02-27T01:12:59.118Z,8.70
2023-02-27T01:13:59.066Z,8.80
2023-02-27T01:14:59.054Z,8.80
2023-02-27T01:15:59.080Z,9.10
2023-02-27T01:16:59.046Z,8.90
2023-02-27T01:17:59.034Z,9.20
2023-02-27T01:18:59.012Z,9.30
2023-02-27T01:19:58.998Z,9.00
2023-02-27T01:20:58.991Z,9.00
2023-02-27T01:21:58.976Z,8.50
2023-02-27T01:22:58.978Z,8.30
2023-02-27T01:23:58.974Z,8.50
2023-02-27T01:24:58.933Z,8.80
2023-02-27T01:25:58.926Z,8.50
2023-02-27T01:26:58.912Z,8.20
2023-02-27T01:27:58.937Z,7.90
2023-02-27T01:28:58.885Z,8.10
2023-02-27T01:29:58.876Z,8.20
2023-02-27T01:30:58.923Z,8.30
2023-02-27T01:31:59.010Z,8.40
2023-02-27T01:32:58.835Z,9.00
2023-02-27T01:33:58.844Z,8.00
2023-02-27T01:34:58.812Z,8.20
2023-02-27T01:35:58.798Z,8.30
2023-02-27T01:36:58.784Z,8.80
2023-02-27T01:37:58.770Z,8.40
2023-02-27T01:38:58.775Z,8.40
2023-02-27T01:39:58.749Z,8.40
2023-02-27T01:40:58.736Z,8.80
2023-02-27T01:41:58.723Z,8.70
2023-02-27T01:42:58.718Z,9.00
2023-02-27T01:43:58.730Z,8.70
2023-02-27T01:44:58.760Z,8.60
2023-02-27T01:45:58.766Z,8.20
2023-02-27T01:46:58.661Z,8.70
2023-02-27T01:47:58.685Z,7.80
2023-02-27T01:48:58.662Z,7.90
2023-02-27T01:49:58.655Z,8.70
2023-02-27T01:50:58.606Z,9.00
2023-02-27T01:51:58.598Z,7.50
2023-02-27T01:52:58.621Z,8.10
2023-02-27T01:53:58.616Z,7.80
2023-02-27T01:54:58.559Z,7.30
2023-02-27T01:55:58.545Z,6.40
2023-02-27T01:56:58.537Z,6.60
2023-02-27T01:57:58.544Z,6.20
2023-02-27T01:58:58.524Z,5.90
2023-02-27T01:59:58.513Z,6.40
2023-02-27T02:00:58.495Z,6.00
2023-02-27T02:01:58.518Z,5.70
2023-02-27T02:02:58.458Z,6.00
2023-02-27T02:03:58.490Z,6.40
2023-02-27T02:04:58.436Z,5.80
2023-02-27T02:05:58.419Z,6.00
2023-02-27T02:06:58.413Z,6.00
2023-02-27T02:07:58.411Z,5.90
2023-02-27T02:08:58.400Z,6.40
2023-02-27T02:09:58.378Z,5.70
2023-02-27T02:10:58.365Z,6.00
2023-02-27T02:11:58.348Z,6.40
2023-02-27T02:12:58.333Z,6.20
2023-02-27T02:13:58.356Z,6.20
2023-02-27T02:14:58.323Z,6.40
2023-02-27T02:15:58.297Z,6.10
2023-02-27T02:16:58.367Z,6.20
2023-02-27T02:17:58.272Z,6.20
2023-02-27T02:18:58.276Z,6.20
2023-02-27T02:19:58.263Z,5.70
2023-02-27T02:20:58.234Z,5.90
2023-02-27T02:21:58.221Z,5.90
2023-02-27T02:22:58.212Z,5.90
2023-02-27T02:23:58.220Z,6.70
2023-02-27T02:24:58.182Z,5.60
2023-02-27T02:25:58.172Z,6.10
2023-02-27T02:26:58.162Z,6.30
2023-02-27T02:27:58.154Z,5.80
2023-02-27T02:28:58.147Z,6.10
2023-02-27T02:29:58.130Z,5.60
2023-02-27T02:30:58.225Z,5.50
2023-02-27T02:31:58.197Z,5.60
2023-02-27T02:32:58.082Z,6.00
2023-02-27T02:33:58.101Z,5.90
2023-02-27T02:34:58.057Z,5.80
2023-02-27T02:35:58.070Z,5.80
2023-02-27T02:36:58.035Z,5.70
2023-02-27T02:37:58.019Z,6.10
2023-02-27T02:38:58.009Z,5.90
2023-02-27T02:39:58.014Z,5.90
2023-02-27T02:40:57.985Z,5.90
2023-02-27T02:41:57.973Z,5.80
2023-02-27T02:42:57.955Z,5.80
2023-02-27T02:43:57.947Z,5.80
2023-02-27T02:44:58.532Z,5.80
2023-02-27T02:45:57.957Z,5.30
2023-02-27T02:46:57.906Z,5.50
2023-02-27T02:47:57.903Z,5.80
2023-02-27T02:48:57.883Z,5.80
2023-02-27T02:49:57.885Z,5.60
2023-02-27T02:50:57.854Z,5.90
2023-02-27T02:51:57.868Z,5.50
2023-02-27T02:52:59.228Z,5.60
2023-02-27T02:53:57.823Z,5.40
2023-02-27T02:54:57.823Z,5.50
2023-02-27T02:55:57.796Z,5.20
2023-02-27T02:56:57.795Z,5.50
2023-02-27T02:57:57.768Z,5.80
2023-02-27T02:58:57.757Z,5.00
2023-02-27T02:59:57.758Z,5.10
2023-02-27T03:00:57.744Z,5.10
2023-02-27T03:01:57.726Z,5.30
2023-02-27T03:02:57.709Z,5.10
2023-02-27T03:03:57.698Z,4.80
2023-02-27T03:04:57.719Z,5.00
2023-02-27T03:05:57.679Z,5.30
2023-02-27T03:06:57.665Z,4.70
2023-02-27T03:07:57.687Z,4.80
2023-02-27T03:08:57.637Z,4.70
2023-02-27T03:09:57.640Z,4.60
2023-02-27T03:10:57.605Z,4.50
2023-02-27T03:11:57.603Z,4.60
2023-02-27T03:12:59.496Z,4.50
2023-02-27T03:13:57.585Z,4.50
2023-02-27T03:14:57.577Z,4.10
2023-02-27T03:15:57.648Z,4.50
2023-02-27T03:16:57.540Z,4.60
2023-02-27T03:17:57.520Z,4.40
2023-02-27T03:18:57.505Z,4.50
2023-02-27T03:19:57.519Z,4.30
2023-02-27T03:20:57.480Z,4.10
2023-02-27T03:21:57.466Z,4.20
2023-02-27T03:22:57.454Z,4.40
2023-02-27T03:23:57.465Z,4.70
2023-02-27T03:24:57.469Z,4.20
2023-02-27T03:25:58.456Z,5.10
2023-02-27T03:26:57.407Z,4.40
2023-02-27T03:27:57.406Z,4.70
2023-02-27T03:28:57.381Z,4.40
2023-02-27T03:29:57.387Z,4.50
2023-02-27T03:30:57.458Z,4.60
2023-02-27T03:31:57.507Z,4.50
2023-02-27T03:32:57.327Z,4.30
2023-02-27T03:33:57.314Z,4.30
2023-02-27T03:34:57.312Z,4.60
2023-02-27T03:35:57.287Z,4.50
2023-02-27T03:36:57.278Z,4.80
2023-02-27T03:37:57.262Z,4.70
2023-02-27T03:38:57.247Z,4.60
2023-02-27T03:39:57.284Z,4.50
2023-02-27T03:40:57.235Z,4.20
2023-02-27T03:41:57.215Z,4.50
2023-02-27T03:42:57.202Z,4.30
2023-02-27T03:43:57.195Z,4.10
2023-02-27T03:44:57.195Z,4.40
2023-02-27T03:45:57.173Z,4.00
2023-02-27T03:46:57.152Z,4.10
2023-02-27T03:47:57.143Z,3.90
2023-02-27T03:48:57.128Z,4.00
2023-02-27T03:49:57.130Z,3.70
2023-02-27T03:50:57.100Z,3.50
2023-02-27T03:51:57.092Z,3.70
2023-02-27T03:52:57.075Z,3.80
2023-02-27T03:53:57.065Z,3.80
2023-02-27T03:54:57.074Z,3.30
2023-02-27T03:55:57.056Z,3.50
2023-02-27T03:56:57.030Z,3.10
2023-02-27T03:57:57.028Z,3.10
2023-02-27T03:58:57.010Z,2.90
2023-02-27T03:59:57.001Z,3.10
2023-02-27T04:00:56.979Z,2.60
2023-02-27T04:01:57.038Z,3.30
2023-02-27T04:02:56.982Z,3.00
2023-02-27T04:03:56.942Z,3.60
2023-02-27T04:04:56.926Z,3.20
2023-02-27T04:05:56.931Z,3.40
2023-02-27T04:06:56.908Z,3.40
2023-02-27T04:07:56.888Z,3.60
2023-02-27T04:08:56.877Z,3.60
2023-02-27T04:09:56.869Z,3.60
2023-02-27T04:10:56.869Z,3.80
2023-02-27T04:11:56.864Z,3.50
2023-02-27T04:12:56.834Z,3.50
2023-02-27T04:13:56.815Z,3.60
2023-02-27T04:14:56.802Z,3.60
2023-02-27T04:15:56.868Z,3.70
2023-02-27T04:16:56.774Z,3.60
2023-02-27T04:17:56.762Z,3.20
2023-02-27T04:18:57.063Z,3.00
2023-02-27T04:19:56.754Z,3.30
2023-02-27T04:20:56.742Z,3.30
2023-02-27T04:21:56.714Z,2.60
2023-02-27T04:22:56.704Z,2.60
2023-02-27T04:23:56.689Z,2.30
2023-02-27T04:24:56.679Z,1.90
2023-02-27T04:25:56.686Z,1.90
2023-02-27T04:26:56.654Z,1.70
2023-02-27T04:27:56.667Z,2.00
2023-02-27T04:28:56.629Z,1.80
2023-02-27T04:29:56.638Z,1.70
2023-02-27T04:30:56.673Z,1.90
2023-02-27T04:31:56.781Z,1.70
2023-02-27T04:32:56.699Z,1.70
2023-02-27T04:33:56.570Z,1.60
2023-02-27T04:34:56.559Z,1.50
2023-02-27T04:35:56.559Z,1.70
2023-02-27T04:36:56.541Z,1.90
2023-02-27T04:37:56.530Z,1.80
2023-02-27T04:38:56.509Z,1.80
2023-02-27T04:39:56.497Z,2.20
2023-02-27T04:40:56.494Z,1.70
2023-02-27T04:41:56.472Z,1.60
2023-02-27T04:42:56.457Z,1.90
2023-02-27T04:43:56.481Z,1.80
2023-02-27T04:44:59.038Z,2.00
2023-02-27T04:45:56.466Z,1.90
2023-02-27T04:46:56.422Z,1.80
2023-02-27T04:47:56.397Z,1.70
2023-02-27T04:48:56.398Z,1.60
2023-02-27T04:49:56.389Z,1.60
2023-02-27T04:50:56.378Z,1.80
2023-02-27T04:51:56.349Z,1.50
2023-02-27T04:52:56.335Z,1.60
2023-02-27T04:53:56.328Z,1.80
2023-02-27T04:54:56.315Z,1.70
2023-02-27T04:55:56.313Z,1.90
2023-02-27T04:56:56.306Z,1.80
2023-02-27T04:57:56.289Z,2.00
2023-02-27T04:58:56.269Z,1.90
2023-02-27T04:59:56.272Z,1.80
2023-02-27T05:00:56.264Z,2.00
2023-02-27T05:01:56.376Z,2.30
2023-02-27T05:02:56.296Z,2.50
2023-02-27T05:03:56.200Z,2.50
2023-02-27T05:04:56.185Z,2.30
2023-02-27T05:05:56.175Z,2.40
2023-02-27T05:06:56.184Z,2.40
2023-02-27T05:07:56.148Z,2.20
2023-02-27T05:08:56.131Z,2.20
2023-02-27T05:09:56.124Z,2.20
2023-02-27T05:10:56.109Z,2.20
2023-02-27T05:11:56.113Z,2.10
2023-02-27T05:12:56.085Z,1.90
2023-02-27T05:13:56.068Z,2.00
2023-02-27T05:14:56.066Z,2.20
2023-02-27T05:15:56.108Z,2.00
2023-02-27T05:16:56.051Z,1.70
2023-02-27T05:17:56.037Z,1.80
2023-02-27T05:18:56.021Z,1.70
2023-02-27T05:19:56.000Z,1.80
2023-02-27T05:20:55.987Z,2.00
2023-02-27T05:21:55.994Z,1.80
2023-02-27T05:22:55.957Z,2.10
2023-02-27T05:23:55.961Z,1.80
2023-02-27T05:24:55.933Z,2.00
2023-02-27T05:25:55.922Z,1.90
2023-02-27T05:26:55.919Z,1.90
2023-02-27T05:27:55.897Z,2.00
2023-02-27T05:28:55.883Z,2.00
2023-02-27T05:29:55.875Z,1.80
2023-02-27T05:30:55.862Z,1.90
2023-02-27T05:31:56.044Z,1.80
2023-02-27T05:32:55.836Z,2.00
2023-02-27T05:33:55.818Z,2.00
2023-02-27T05:34:55.810Z,1.80
2023-02-27T05:35:55.830Z,1.90
2023-02-27T05:36:55.800Z,1.80
2023-02-27T05:37:55.774Z,1.70
2023-02-27T05:38:55.761Z,1.90
2023-02-27T05:39:55.751Z,2.20
2023-02-27T05:40:55.738Z,2.20
2023-02-27T05:41:55.752Z,2.10
2023-02-27T05:42:55.709Z,2.20
2023-02-27T05:43:55.714Z,2.20
2023-02-27T05:44:55.680Z,2.10
2023-02-27T05:45:55.868Z,2.10
2023-02-27T05:46:55.669Z,2.20
2023-02-27T05:47:55.663Z,2.10
2023-02-27T05:48:55.627Z,2.30
2023-02-27T05:49:55.614Z,2.40
2023-02-27T05:50:55.610Z,2.40
2023-02-27T05:51:57.183Z,2.20
2023-02-27T05:52:55.580Z,2.10
2023-02-27T05:53:55.569Z,2.10
2023-02-27T05:54:55.555Z,2.30
2023-02-27T05:55:55.538Z,2.20
2023-02-27T05:56:55.557Z,2.20
2023-02-27T05:57:55.516Z,2.10
2023-02-27T05:58:55.507Z,2.00
2023-02-27T05:59:55.495Z,2.50
2023-02-27T06:00:55.487Z,1.90
2023-02-27T06:01:55.527Z,2.30
2023-02-27T06:02:55.455Z,2.10
2023-02-27T06:03:55.468Z,2.20
2023-02-27T06:04:55.446Z,2.50
2023-02-27T06:05:55.431Z,2.30
2023-02-27T06:06:55.418Z,2.10
2023-02-27T06:07:55.395Z,2.10
2023-02-27T06:08:55.386Z,2.10
2023-02-27T06:09:55.368Z,2.10
2023-02-27T06:10:55.374Z,2.30
2023-02-27T06:11:55.360Z,2.50
2023-02-27T06:12:55.350Z,2.40
2023-02-27T06:13:55.324Z,2.20
2023-02-27T06:14:55.307Z,2.50
2023-02-27T06:15:55.294Z,2.50
2023-02-27T06:16:55.419Z,2.30
2023-02-27T06:17:55.285Z,2.40
2023-02-27T06:18:55.269Z,2.30
2023-02-27T06:19:55.266Z,2.70
2023-02-27T06:20:55.232Z,2.60
2023-02-27T06:21:55.223Z,2.90
2023-02-27T06:22:55.221Z,3.30
2023-02-27T06:23:55.192Z,3.00
2023-02-27T06:24:55.184Z,3.30
2023-02-27T06:25:55.172Z,3.40
2023-02-27T06:26:55.154Z,3.20
2023-02-27T06:27:55.160Z,3.30
2023-02-27T06:28:55.129Z,3.20
2023-02-27T06:29:55.133Z,3.30
2023-02-27T06:30:55.199Z,3.20
2023-02-27T06:31:55.137Z,3.40
2023-02-27T06:32:55.101Z,3.40
2023-02-27T06:33:55.066Z,3.30
2023-02-27T06:34:55.061Z,3.30
2023-02-27T06:35:55.099Z,3.40
2023-02-27T06:36:55.042Z,3.10
2023-02-27T06:37:55.030Z,3.10
2023-02-27T06:38:55.017Z,3.00
2023-02-27T06:39:54.992Z,3.20
2023-02-27T06:40:54.978Z,3.10
2023-02-27T06:41:54.964Z,3.60
2023-02-27T06:42:54.988Z,3.80
2023-02-27T06:43:54.937Z,3.40
2023-02-27T06:44:54.923Z,3.10
2023-02-27T06:45:55.007Z,3.20
2023-02-27T06:46:54.906Z,3.00
2023-02-27T06:47:54.907Z,3.10
2023-02-27T06:48:54.872Z,3.00
2023-02-27T06:49:54.862Z,3.20
2023-02-27T06:50:54.856Z,2.80
2023-02-27T06:51:54.853Z,2.80
2023-02-27T06:52:54.844Z,3.00
2023-02-27T06:53:54.812Z,2.70
2023-02-27T06:54:54.835Z,3.00
2023-02-27T06:55:54.807Z,3.20
2023-02-27T06:56:54.782Z,3.20
2023-02-27T06:57:54.778Z,3.10
2023-02-27T06:58:54.749Z,3.60
2023-02-27T06:59:54.739Z,3.40
2023-02-27T07:00:54.722Z,3.40
2023-02-27T07:01:54.705Z,3.60
2023-02-27T07:02:54.716Z,3.40
2023-02-27T07:03:54.681Z,3.30
2023-02-27T07:04:54.700Z,3.10
2023-02-27T07:05:54.658Z,3.00
2023-02-27T07:07:33.185Z,3.00
2023-02-27T07:07:54.679Z,3.30
2023-02-27T07:09:06.482Z,3.30
2023-02-27T07:09:54.610Z,2.80
2023-02-27T07:10:54.599Z,3.30
2023-02-27T07:11:54.590Z,3.20
2023-02-27T07:12:54.575Z,3.60
2023-02-27T07:13:54.582Z,4.30
2023-02-27T07:14:54.550Z,4.90
2023-02-27T07:15:54.582Z,4.20
2023-02-27T07:16:54.522Z,3.60
2023-02-27T07:17:54.518Z,3.10
2023-02-27T07:18:54.511Z,3.00
2023-02-27T07:19:54.541Z,3.40
2023-02-27T07:20:54.479Z,3.20
2023-02-27T07:21:54.462Z,3.10
2023-02-27T07:22:54.449Z,4.00
2023-02-27T07:23:54.467Z,2.90
2023-02-27T07:24:54.464Z,3.10
2023-02-27T07:25:54.407Z,3.50
2023-02-27T07:26:54.400Z,4.00
2023-02-27T07:27:54.375Z,4.90
2023-02-27T07:28:54.380Z,5.30
2023-02-27T07:29:54.350Z,4.90
2023-02-27T07:30:54.445Z,4.50
2023-02-27T07:31:54.349Z,4.30
2023-02-27T07:32:54.312Z,4.60
2023-02-27T07:33:54.315Z,3.90
2023-02-27T07:34:54.286Z,3.60
2023-02-27T07:35:54.304Z,3.10
2023-02-27T07:36:54.262Z,2.90
2023-02-27T07:37:54.255Z,2.80
2023-02-27T07:38:54.251Z,2.60
2023-02-27T07:39:54.256Z,2.70
2023-02-27T07:40:54.214Z,2.60
2023-02-27T07:41:54.240Z,2.80
2023-02-27T07:42:54.195Z,3.00
2023-02-27T07:43:54.211Z,2.80
2023-02-27T07:44:54.413Z,2.70
2023-02-27T07:45:54.144Z,2.80
2023-02-27T07:46:54.182Z,3.00
2023-02-27T07:47:54.118Z,2.70
2023-02-27T07:48:54.126Z,2.80
2023-02-27T07:49:54.097Z,2.60
2023-02-27T07:50:54.082Z,2.10
2023-02-27T07:51:54.068Z,2.10
2023-02-27T07:52:54.057Z,2.10
2023-02-27T07:53:54.058Z,2.00
2023-02-27T07:54:54.030Z,2.30
2023-02-27T07:55:54.060Z,2.30
2023-02-27T07:56:54.000Z,2.60
2023-02-27T07:57:53.993Z,2.70
2023-02-27T07:58:53.994Z,2.70
2023-02-27T07:59:53.963Z,2.30
2023-02-27T08:00:53.952Z,2.40
2023-02-27T08:01:53.930Z,2.00
2023-02-27T08:02:53.991Z,2.10
2023-02-27T08:03:53.922Z,2.20
2023-02-27T08:04:53.983Z,2.10
2023-02-27T08:05:53.886Z,2.10
2023-02-27T08:06:53.868Z,2.10
2023-02-27T08:07:53.852Z,1.80
2023-02-27T08:08:53.911Z,2.00
2023-02-27T08:09:53.832Z,1.90
2023-02-27T08:10:53.826Z,1.80
2023-02-27T08:11:53.818Z,1.80
2023-02-27T08:12:53.793Z,2.10
2023-02-27T08:14:02.122Z,2.10
2023-02-27T08:14:54.782Z,1.80
2023-02-27T08:15:53.828Z,2.00
2023-02-27T08:16:53.761Z,1.80
2023-02-27T08:17:53.752Z,1.80
2023-02-27T08:18:53.753Z,1.60
2023-02-27T08:19:53.707Z,2.10
2023-02-27T08:20:53.679Z,1.70
2023-02-27T08:21:53.665Z,2.00
2023-02-27T08:22:53.651Z,2.00
2023-02-27T08:23:53.642Z,2.10
2023-02-27T08:24:53.641Z,1.90
2023-02-27T08:25:22.454Z,1.60
2023-02-27T08:26:22.450Z,1.70
2023-02-27T08:27:22.478Z,1.50
2023-02-27T08:28:22.431Z,1.90
2023-02-27T08:29:22.417Z,1.60
2023-02-27T08:30:22.391Z,1.70
2023-02-27T08:31:22.415Z,1.70
2023-02-27T08:32:22.382Z,1.90
2023-02-27T08:33:22.349Z,2.00
2023-02-27T08:34:22.383Z,1.80
2023-02-27T08:35:22.318Z,1.90
2023-02-27T08:36:22.306Z,2.00
2023-02-27T08:37:22.297Z,1.90
2023-02-27T08:38:22.867Z,1.80
2023-02-27T08:39:22.288Z,1.80
2023-02-27T08:40:22.255Z,1.80
2023-02-27T08:41:22.239Z,1.80
2023-02-27T08:42:22.231Z,1.60
2023-02-27T08:43:22.241Z,1.70
2023-02-27T08:44:22.224Z,1.60
2023-02-27T08:45:22.187Z,1.50
2023-02-27T08:46:22.182Z,1.60
2023-02-27T08:47:22.162Z,1.70
2023-02-27T08:48:22.152Z,1.80
2023-02-27T08:49:22.157Z,1.80
2023-02-27T08:50:22.120Z,1.70
2023-02-27T08:51:22.108Z,1.70
2023-02-27T08:52:24.018Z,1.80
2023-02-27T08:53:22.091Z,1.60
2023-02-27T08:54:22.088Z,1.60
2023-02-27T08:55:22.076Z,1.70
2023-02-27T08:56:22.040Z,1.50
2023-02-27T08:57:22.034Z,1.30
2023-02-27T08:58:22.026Z,1.60
2023-02-27T08:59:22.037Z,1.60
2023-02-27T09:00:22.057Z,1.90
2023-02-27T09:01:22.138Z,1.60
2023-02-27T09:02:22.025Z,1.80
2023-02-27T09:03:21.956Z,1.90
2023-02-27T09:04:21.947Z,1.90
2023-02-27T09:05:21.945Z,1.80
2023-02-27T09:06:22.295Z,1.70
2023-02-27T09:07:21.906Z,1.50
2023-02-27T09:08:21.885Z,1.50
2023-02-27T09:09:21.889Z,2.00
2023-02-27T09:10:21.877Z,1.50
2023-02-27T09:11:21.855Z,1.40
2023-02-27T09:12:21.837Z,1.50
2023-02-27T09:13:21.828Z,1.30
2023-02-27T09:14:21.814Z,1.30
2023-02-27T09:15:21.834Z,1.20
2023-02-27T09:16:21.834Z,1.40
2023-02-27T09:17:21.778Z,1.50
2023-02-27T09:18:21.761Z,1.50
2023-02-27T09:19:21.754Z,1.40
2023-02-27T09:20:21.748Z,1.40
2023-02-27T09:21:21.726Z,1.40
2023-02-27T09:22:21.711Z,1.60
2023-02-27T09:23:21.714Z,1.40
2023-02-27T09:24:21.692Z,1.20
2023-02-27T09:25:21.694Z,1.30
2023-02-27T09:26:28.931Z,1.20
2023-02-27T09:27:22.664Z,1.20
2023-02-27T09:28:21.645Z,1.30
2023-02-27T09:29:21.626Z,1.30
2023-02-27T09:30:21.622Z,1.20
2023-02-27T09:31:21.669Z,1.20
2023-02-27T09:32:21.694Z,1.20
2023-02-27T09:33:21.574Z,1.30
2023-02-27T09:34:21.558Z,1.30
2023-02-27T09:35:21.565Z,1.00
2023-02-27T09:36:21.531Z,0.90
2023-02-27T09:37:21.520Z,0.90
2023-02-27T09:38:21.505Z,0.70
2023-02-27T09:39:21.499Z,0.70
2023-02-27T09:40:21.498Z,0.80
2023-02-27T09:41:21.474Z,0.90
2023-02-27T09:42:21.459Z,0.60
2023-02-27T09:43:21.535Z,0.70
2023-02-27T09:44:30.598Z,0.70
2023-02-27T09:45:21.438Z,0.70
2023-02-27T09:46:21.483Z,0.70
2023-02-27T09:47:21.458Z,0.50
2023-02-27T09:48:21.381Z,0.70
2023-02-27T09:49:21.380Z,0.70
2023-02-27T09:50:21.432Z,0.50
2023-02-27T09:51:21.349Z,0.60
2023-02-27T09:52:21.329Z,0.70
2023-02-27T09:53:21.320Z,0.50
2023-02-27T09:54:21.308Z,0.60
2023-02-27T09:55:21.308Z,0.60
2023-02-27T09:56:21.281Z,0.70
2023-02-27T09:57:21.270Z,0.80
2023-02-27T09:58:21.264Z,0.60
2023-02-27T09:59:21.242Z,0.60
2023-02-27T10:00:21.334Z,0.60
2023-02-27T10:01:21.222Z,0.70
2023-02-27T10:02:21.225Z,0.70
2023-02-27T10:03:21.234Z,0.60
2023-02-27T10:04:21.182Z,0.70
2023-02-27T10:05:21.183Z,0.70
2023-02-27T10:06:21.154Z,0.70
2023-02-27T10:07:21.150Z,0.70
2023-02-27T10:08:21.132Z,0.60
2023-02-27T10:09:21.123Z,0.60
2023-02-27T10:10:21.121Z,0.50
2023-02-27T10:11:21.103Z,0.60
2023-02-27T10:12:21.082Z,0.60
2023-02-27T10:13:21.069Z,0.60
2023-02-27T10:14:21.057Z,0.50
2023-02-27T10:15:21.067Z,0.60
2023-02-27T10:16:21.104Z,0.50
2023-02-27T10:17:21.023Z,0.60
2023-02-27T10:18:28.247Z,0.50
2023-02-27T10:19:21.024Z,0.50
2023-02-27T10:20:20.981Z,0.60
2023-02-27T10:21:20.986Z,0.70
2023-02-27T10:22:20.957Z,0.50
2023-02-27T10:23:20.944Z,0.40
2023-02-27T10:24:20.931Z,0.60
2023-02-27T10:25:31.394Z,0.60
2023-02-27T10:26:21.924Z,0.70
2023-02-27T10:27:20.893Z,0.60
2023-02-27T10:28:20.899Z,0.40
2023-02-27T10:29:20.878Z,0.50
2023-02-27T10:30:29.286Z,0.50
2023-02-27T10:31:21.248Z,0.60
2023-02-27T10:32:20.878Z,0.60
2023-02-27T10:33:20.833Z,0.70
2023-02-27T10:34:20.816Z,0.80
2023-02-27T10:35:20.816Z,0.70
2023-02-27T10:36:32.998Z,0.60
2023-02-27T10:37:20.783Z,0.60
2023-02-27T10:38:20.759Z,0.60
2023-02-27T10:39:20.745Z,0.40
2023-02-27T10:40:20.773Z,0.40
2023-02-27T10:41:20.735Z,0.50
2023-02-27T10:42:20.702Z,0.60
2023-02-27T10:43:20.693Z,0.50
2023-02-27T10:44:20.680Z,0.60
2023-02-27T10:45:20.674Z,0.50
2023-02-27T10:46:20.715Z,0.50
2023-02-27T10:47:20.641Z,0.70
2023-02-27T10:48:20.630Z,0.50
2023-02-27T10:49:20.619Z,0.70
2023-02-27T10:50:20.596Z,0.70
2023-02-27T10:51:20.630Z,0.60
2023-02-27T10:52:20.612Z,0.70
2023-02-27T10:53:20.566Z,0.60
2023-02-27T10:54:20.543Z,0.80
2023-02-27T10:55:20.540Z,0.90
2023-02-27T10:56:20.534Z,0.90
2023-02-27T10:57:20.508Z,1.10
2023-02-27T10:58:20.499Z,0.80
2023-02-27T10:59:20.488Z,0.60
2023-02-27T11:00:20.472Z,0.70
2023-02-27T11:01:20.564Z,0.90
2023-02-27T11:02:20.461Z,0.60
2023-02-27T11:03:20.428Z,0.60
2023-02-27T11:04:20.489Z,0.80
2023-02-27T11:05:20.407Z,0.70
2023-02-27T11:06:20.405Z,0.70
2023-02-27T11:07:20.396Z,0.50
2023-02-27T11:08:20.368Z,0.60
2023-02-27T11:09:20.355Z,0.80
2023-02-27T11:10:20.344Z,0.60
2023-02-27T11:11:20.342Z,0.60
2023-02-27T11:12:20.322Z,0.60
2023-02-27T11:13:20.319Z,0.50
2023-02-27T11:14:20.319Z,0.50
2023-02-27T11:15:20.301Z,0.50
2023-02-27T11:16:20.317Z,0.70
2023-02-27T11:17:20.266Z,0.60
2023-02-27T11:18:20.237Z,0.60
2023-02-27T11:19:20.228Z,0.60
2023-02-27T11:20:20.222Z,0.60
2023-02-27T11:21:20.206Z,0.50
2023-02-27T11:22:20.216Z,0.50
2023-02-27T11:23:20.198Z,0.60
2023-02-27T11:24:20.172Z,1.00
2023-02-27T11:25:20.153Z,0.90
2023-02-27T11:26:20.135Z,0.70
2023-02-27T11:27:20.139Z,0.60
2023-02-27T11:28:20.113Z,0.60
2023-02-27T11:29:20.106Z,0.60
2023-02-27T11:30:20.092Z,0.70
2023-02-27T11:31:20.120Z,0.70
2023-02-27T11:32:20.159Z,0.60
2023-02-27T11:33:20.044Z,0.70
2023-02-27T11:34:20.035Z,0.60
2023-02-27T11:35:20.028Z,0.60
2023-02-27T11:36:20.088Z,0.60
2023-02-27T11:37:20.012Z,0.60
2023-02-27T11:38:19.989Z,0.80
2023-02-27T11:39:20.013Z,1.20
2023-02-27T11:40:19.960Z,1.40
2023-02-27T11:41:19.953Z,1.00
2023-02-27T11:42:19.954Z,0.50
2023-02-27T11:43:19.922Z,0.60
2023-02-27T11:44:29.356Z,1.60
2023-02-27T11:46:04.586Z,0.90
2023-02-27T11:46:47.257Z,0.60
2023-02-27T11:47:19.987Z,0.60
2023-02-27T11:48:19.862Z,0.60
2023-02-27T11:49:19.844Z,0.70
2023-02-27T11:50:19.828Z,0.50
2023-02-27T11:51:19.820Z,0.60
2023-02-27T11:52:19.847Z,0.40
2023-02-27T11:53:19.800Z,0.60
2023-02-27T11:54:19.777Z,0.50
2023-02-27T11:55:19.789Z,0.50
2023-02-27T11:56:19.756Z,0.80
2023-02-27T11:57:19.764Z,0.50
2023-02-27T11:58:19.732Z,0.50
2023-02-27T11:59:19.724Z,0.50
2023-02-27T12:00:19.776Z,0.50
2023-02-27T12:01:19.694Z,0.60
2023-02-27T12:02:19.692Z,0.60
2023-02-27T12:03:19.664Z,0.60
2023-02-27T12:04:19.691Z,0.70
2023-02-27T12:05:19.658Z,0.60
2023-02-27T12:06:19.640Z,0.50
2023-02-27T12:07:19.644Z,0.60
2023-02-27T12:08:19.607Z,0.70
2023-02-27T12:09:19.587Z,0.50
2023-02-27T12:10:19.580Z,0.50
2023-02-27T12:11:19.593Z,0.50
2023-02-27T12:12:19.571Z,0.50
2023-02-27T12:13:19.554Z,0.60
2023-02-27T12:14:19.525Z,0.60
2023-02-27T12:15:19.515Z,0.50
2023-02-27T12:16:19.536Z,0.50
2023-02-27T12:17:19.502Z,0.70
2023-02-27T12:18:19.484Z,0.60
2023-02-27T12:19:19.466Z,0.50
2023-02-27T12:20:19.450Z,0.50
2023-02-27T12:21:19.437Z,0.60
2023-02-27T12:22:19.438Z,3.00
2023-02-27T12:23:19.418Z,2.00
2023-02-27T12:24:19.401Z,0.90
2023-02-27T12:25:19.388Z,0.80
2023-02-27T12:26:19.374Z,0.50
2023-02-27T12:27:19.393Z,0.50
2023-02-27T12:28:19.348Z,0.60
2023-02-27T12:29:19.339Z,0.60
2023-02-27T12:30:19.319Z,0.60
2023-02-27T12:31:19.346Z,0.60
2023-02-27T12:32:19.347Z,0.80
2023-02-27T12:33:19.282Z,0.60
2023-02-27T12:34:19.265Z,0.70
2023-02-27T12:35:19.250Z,0.70
2023-02-27T12:36:19.240Z,0.70
2023-02-27T12:37:19.268Z,0.60
2023-02-27T12:38:19.219Z,0.80
2023-02-27T12:39:19.204Z,0.80
2023-02-27T12:40:19.184Z,0.70
2023-02-27T12:41:19.179Z,0.90
2023-02-27T12:42:19.167Z,0.80
2023-02-27T12:43:19.185Z,0.80
2023-02-27T12:44:19.133Z,0.80
2023-02-27T12:45:19.122Z,0.80
2023-02-27T12:46:19.111Z,0.60
2023-02-27T12:47:19.099Z,0.60
2023-02-27T12:48:19.102Z,0.70
2023-02-27T12:49:19.073Z,0.60
2023-02-27T12:50:19.057Z,0.60
2023-02-27T12:51:19.044Z,0.60
2023-02-27T12:52:19.041Z,0.70
2023-02-27T12:53:19.036Z,0.60
2023-02-27T12:54:19.009Z,0.40
2023-02-27T12:55:18.991Z,0.70
2023-02-27T12:56:18.977Z,0.70
2023-02-27T12:57:18.965Z,0.60
2023-02-27T12:58:18.966Z,0.50
2023-02-27T12:59:18.964Z,0.50
2023-02-27T13:00:18.932Z,0.50
2023-02-27T13:01:18.976Z,0.50
2023-02-27T13:02:18.912Z,0.60
2023-02-27T13:03:18.911Z,0.80
2023-02-27T13:04:18.976Z,0.80
2023-02-27T13:05:18.863Z,0.80
2023-02-27T13:06:18.853Z,1.00
2023-02-27T13:07:18.840Z,0.80
2023-02-27T13:08:18.843Z,1.00
2023-02-27T13:09:18.813Z,0.90
2023-02-27T13:10:18.811Z,1.20
2023-02-27T13:11:18.808Z,1.70
2023-02-27T13:12:18.783Z,1.90
2023-02-27T13:13:18.781Z,0.80
2023-02-27T13:14:18.759Z,0.60
2023-02-27T13:15:18.758Z,0.60
2023-02-27T13:16:18.770Z,0.70
2023-02-27T13:17:18.709Z,1.10